createdAt,value
2024-04-09T00:01:04.807Z,92.23
2024-04-09T00:03:32.918Z,91.12
2024-04-09T00:06:00.186Z,92.19
2024-04-09T00:08:29.896Z,91.75
2024-04-09T00:10:57.577Z,92.88
2024-04-09T00:13:26.545Z,94.02
2024-04-09T00:15:53.254Z,94.68
2024-04-09T00:18:20.019Z,93.94
2024-04-09T00:20:49.644Z,94.67
2024-04-09T00:23:19.195Z,93.18
2024-04-09T00:25:46.444Z,93.00
2024-04-09T00:28:13.684Z,95.18
2024-04-09T00:30:46.211Z,94.94
2024-04-09T00:33:15.958Z,93.72
2024-04-09T00:35:42.749Z,95.91
2024-04-09T00:38:09.326Z,95.77
2024-04-09T00:40:37.551Z,95.39
2024-04-09T00:43:05.228Z,94.41
2024-04-09T00:45:32.616Z,93.88
2024-04-09T00:48:03.889Z,95.23
2024-04-09T00:50:31.124Z,96.57
2024-04-09T00:52:59.917Z,96.73
2024-04-09T00:55:27.238Z,97.74
2024-04-09T00:57:54.585Z,98.19
2024-04-09T01:00:21.924Z,99.66
2024-04-09T01:02:50.206Z,100.00
2024-04-09T01:05:17.924Z,100.00
2024-04-09T01:07:45.284Z,100.00
2024-04-09T01:10:12.691Z,100.00
2024-04-09T01:12:39.404Z,98.12
2024-04-09T01:15:06.373Z,95.23
2024-04-09T01:17:34.543Z,96.90
2024-04-09T01:20:02.308Z,96.77
2024-04-09T01:22:32.616Z,97.13
2024-04-09T01:24:59.167Z,95.42
2024-04-09T01:27:26.780Z,95.07
2024-04-09T01:29:55.364Z,93.80
2024-04-09T01:32:22.519Z,93.81
2024-04-09T01:34:49.378Z,94.71
2024-04-09T01:37:18.994Z,94.68
2024-04-09T01:39:47.015Z,94.25
2024-04-09T01:42:13.832Z,94.93
2024-04-09T01:44:41.235Z,94.90
2024-04-09T01:47:07.833Z,96.03
2024-04-09T01:49:34.452Z,96.74
2024-04-09T01:52:01.067Z,97.72
2024-04-09T01:54:27.645Z,99.24
2024-04-09T01:56:54.232Z,99.02
2024-04-09T01:59:20.830Z,100.00
2024-04-09T02:01:48.025Z,100.00
2024-04-09T02:04:14.663Z,99.26
2024-04-09T02:06:43.215Z,99.58
2024-04-09T02:09:10.838Z,99.91
2024-04-09T02:11:37.553Z,100.00
2024-04-09T02:14:05.583Z,100.00
2024-04-09T02:16:33.148Z,100.00
2024-04-09T02:18:59.917Z,100.00
2024-04-09T02:21:26.716Z,98.90
2024-04-09T02:23:53.609Z,100.00
2024-04-09T02:26:20.133Z,99.01
2024-04-09T02:28:46.681Z,99.86
2024-04-09T02:31:13.671Z,98.82
2024-04-09T02:33:40.343Z,98.69
2024-04-09T02:36:07.453Z,100.00
2024-04-09T02:38:38.716Z,100.00
2024-04-09T02:41:07.130Z,100.00
2024-04-09T02:43:35.333Z,97.68
2024-04-09T02:46:02.697Z,97.57
2024-04-09T02:48:29.789Z,97.62
2024-04-09T02:51:01.493Z,97.65
2024-04-09T02:53:28.343Z,97.54
2024-04-09T02:56:05.666Z,98.10
2024-04-09T02:58:32.935Z,99.62
2024-04-09T03:01:06.184Z,100.00
2024-04-09T03:03:33.255Z,100.00
2024-04-09T03:06:10.862Z,100.00
2024-04-09T03:08:38.289Z,100.00
2024-04-09T03:11:15.355Z,100.00
2024-04-09T03:13:43.018Z,100.00
2024-04-09T03:16:17.628Z,99.98
2024-04-09T03:18:44.726Z,100.00
2024-04-09T03:21:11.945Z,99.96
2024-04-09T03:23:39.557Z,99.62
2024-04-09T03:26:09.238Z,100.00
2024-04-09T03:28:35.844Z,100.00
2024-04-09T03:31:04.068Z,100.00
2024-04-09T03:33:31.082Z,100.00
2024-04-09T03:35:59.680Z,100.00
2024-04-09T03:38:28.235Z,100.00
2024-04-09T03:40:56.083Z,100.00
2024-04-09T03:43:22.654Z,100.00
2024-04-09T03:46:00.983Z,100.00
2024-04-09T03:48:27.877Z,100.00
2024-04-09T03:50:54.518Z,100.00
2024-04-09T03:53:21.307Z,100.00
2024-04-09T03:55:58.280Z,100.00
2024-04-09T03:58:28.475Z,100.00
2024-04-09T04:01:06.333Z,100.00
2024-04-09T04:03:37.827Z,100.00
2024-04-09T04:06:04.640Z,100.00
2024-04-09T04:08:32.435Z,100.00
2024-04-09T04:11:00.995Z,100.00
2024-04-09T04:13:29.783Z,100.00
2024-04-09T04:16:13.548Z,100.00
2024-04-09T04:18:42.077Z,100.00
2024-04-09T04:21:14.004Z,100.00
2024-04-09T04:23:41.706Z,100.00
2024-04-09T04:26:10.359Z,100.00
2024-04-09T04:28:37.854Z,100.00
2024-04-09T04:31:12.682Z,100.00
2024-04-09T04:33:40.075Z,97.44
2024-04-09T04:36:07.894Z,98.71
2024-04-09T04:38:34.776Z,99.65
2024-04-09T04:41:02.207Z,99.45
2024-04-09T04:43:28.894Z,97.10
2024-04-09T04:45:56.367Z,99.27
2024-04-09T04:48:23.129Z,99.55
2024-04-09T04:50:50.613Z,99.79
2024-04-09T04:53:17.149Z,96.25
2024-04-09T04:55:43.958Z,97.59
2024-04-09T04:58:10.654Z,95.50
2024-04-09T05:00:37.793Z,96.36
2024-04-09T05:03:05.198Z,99.21
2024-04-09T05:05:32.162Z,97.13
2024-04-09T05:07:59.070Z,96.88
2024-04-09T05:10:25.798Z,98.77
2024-04-09T05:12:53.661Z,98.28
2024-04-09T05:15:21.168Z,94.84
2024-04-09T05:17:49.333Z,91.04
2024-04-09T05:20:17.438Z,90.77
2024-04-09T05:22:48.633Z,92.70
2024-04-09T05:25:17.386Z,92.24
2024-04-09T05:27:45.342Z,90.78
2024-04-09T05:30:12.357Z,90.30
2024-04-09T05:32:41.108Z,89.21
2024-04-09T05:35:08.186Z,88.91
2024-04-09T05:37:34.865Z,88.33
2024-04-09T05:40:02.366Z,88.63
2024-04-09T05:42:29.196Z,89.31
2024-04-09T05:44:55.894Z,89.90
2024-04-09T05:47:26.038Z,90.55
2024-04-09T05:49:52.803Z,90.85
2024-04-09T05:52:19.549Z,91.59
2024-04-09T05:54:46.277Z,92.04
2024-04-09T05:57:13.054Z,92.15
2024-04-09T05:59:39.736Z,94.16
2024-04-09T06:02:06.418Z,92.79
2024-04-09T06:04:33.119Z,92.89
2024-04-09T06:07:01.107Z,90.09
2024-04-09T06:09:27.727Z,87.83
2024-04-09T06:11:54.526Z,88.76
2024-04-09T06:14:21.793Z,86.17
2024-04-09T06:16:48.349Z,88.85
2024-04-09T06:19:15.975Z,90.00
2024-04-09T06:21:42.863Z,90.69
2024-04-09T06:24:09.608Z,89.58
2024-04-09T06:26:36.351Z,88.05
2024-04-09T06:29:03.006Z,86.36
2024-04-09T06:31:29.546Z,86.50
2024-04-09T06:33:56.269Z,86.46
2024-04-09T06:36:27.286Z,86.72
2024-04-09T06:38:54.698Z,88.08
2024-04-09T06:41:21.323Z,87.52
2024-04-09T06:43:47.881Z,88.88
2024-04-09T06:46:14.953Z,85.18
2024-04-09T06:48:41.699Z,86.08
2024-04-09T06:51:08.492Z,87.29
2024-04-09T06:53:35.067Z,86.30
2024-04-09T06:56:01.919Z,80.76
2024-04-09T06:58:28.476Z,76.80
2024-04-09T07:00:55.360Z,76.71
2024-04-09T07:03:22.074Z,73.60
2024-04-09T07:05:48.735Z,73.30
2024-04-09T07:08:15.307Z,72.20
2024-04-09T07:10:41.890Z,70.49
2024-04-09T07:13:08.520Z,68.54
2024-04-09T07:15:35.142Z,67.92
2024-04-09T07:18:01.928Z,66.94
2024-04-09T07:20:28.579Z,65.41
2024-04-09T07:22:55.135Z,65.18
2024-04-09T07:25:21.715Z,63.07
2024-04-09T07:27:48.374Z,62.61
2024-04-09T07:30:15.259Z,62.27
2024-04-09T07:32:41.913Z,62.94
2024-04-09T07:35:10.354Z,61.69
2024-04-09T07:37:37.053Z,61.92
2024-04-09T07:40:07.738Z,62.78
2024-04-09T07:42:34.357Z,63.27
2024-04-09T07:45:01.118Z,62.20
2024-04-09T07:47:27.874Z,63.37
2024-04-09T07:49:54.533Z,63.93
2024-04-09T07:52:21.118Z,64.89
2024-04-09T07:54:47.764Z,65.27
2024-04-09T07:57:15.979Z,65.86
2024-04-09T07:59:44.925Z,66.58
2024-04-09T08:02:13.019Z,67.59
2024-04-09T08:04:40.838Z,67.29
2024-04-09T08:07:09.014Z,67.96
2024-04-09T08:09:36.365Z,68.91
2024-04-09T08:12:03.260Z,69.11
2024-04-09T08:14:29.909Z,69.22
2024-04-09T08:16:56.479Z,69.88
2024-04-09T08:19:23.637Z,69.60
2024-04-09T08:21:51.254Z,70.50
2024-04-09T08:24:18.591Z,70.18
2024-04-09T08:26:45.333Z,71.03
2024-04-09T08:29:16.673Z,70.51
2024-04-09T08:31:46.343Z,70.81
2024-04-09T08:34:16.209Z,69.86
2024-04-09T08:36:43.887Z,69.58
2024-04-09T08:39:10.677Z,69.67
2024-04-09T08:41:37.784Z,68.10
2024-04-09T08:44:05.297Z,67.60
2024-04-09T08:46:34.779Z,66.88
2024-04-09T08:49:03.012Z,67.32
2024-04-09T08:51:30.225Z,67.38
2024-04-09T08:53:59.271Z,67.47
2024-04-09T08:56:26.877Z,66.42
2024-04-09T08:58:53.447Z,66.41
2024-04-09T09:01:32.765Z,65.41
2024-04-09T09:04:00.451Z,65.73
2024-04-09T09:06:27.284Z,65.99
2024-04-09T09:08:53.875Z,65.68
2024-04-09T09:11:25.180Z,65.89
2024-04-09T09:13:51.933Z,66.76
2024-04-09T09:16:19.650Z,66.01
2024-04-09T09:18:46.351Z,64.99
2024-04-09T09:21:14.989Z,65.72
2024-04-09T09:23:41.503Z,66.83
2024-04-09T09:26:08.475Z,65.28
2024-04-09T09:28:35.073Z,64.91
2024-04-09T09:31:01.890Z,65.68
2024-04-09T09:33:32.548Z,65.73
2024-04-09T09:36:00.624Z,65.75
2024-04-09T09:38:27.898Z,65.92
2024-04-09T09:40:55.310Z,66.54
2024-04-09T09:43:23.703Z,66.71
2024-04-09T09:45:51.344Z,66.79
2024-04-09T09:48:22.944Z,67.10
2024-04-09T09:50:50.093Z,67.19
2024-04-09T09:53:19.765Z,67.00
2024-04-09T09:55:48.491Z,65.75
2024-04-09T09:58:19.875Z,66.76
2024-04-09T10:00:48.518Z,67.41
2024-04-09T10:03:16.612Z,67.83
2024-04-09T10:05:43.342Z,68.03
2024-04-09T10:08:23.268Z,68.68
2024-04-09T10:10:51.519Z,68.73
2024-04-09T10:13:25.127Z,69.16
2024-04-09T10:15:51.961Z,69.63
2024-04-09T10:18:29.356Z,68.99
2024-04-09T10:20:56.165Z,69.79
2024-04-09T10:23:23.694Z,69.65
2024-04-09T10:25:50.355Z,70.53
2024-04-09T10:28:33.260Z,71.42
2024-04-09T10:31:04.919Z,71.21
2024-04-09T10:33:34.564Z,71.84
2024-04-09T10:36:05.381Z,72.08
2024-04-09T10:38:32.705Z,72.15
2024-04-09T10:41:02.362Z,71.57
2024-04-09T10:43:30.117Z,71.42
2024-04-09T10:46:07.527Z,70.84
2024-04-09T10:48:41.619Z,71.38
2024-04-09T10:51:09.727Z,70.79
2024-04-09T10:53:36.539Z,70.38
2024-04-09T10:56:04.365Z,70.56
2024-04-09T10:58:31.006Z,70.28
2024-04-09T11:00:57.836Z,70.11
2024-04-09T11:03:25.570Z,70.77
2024-04-09T11:05:53.087Z,70.50
2024-04-09T11:08:30.834Z,70.99
2024-04-09T11:10:59.279Z,70.44
2024-04-09T11:13:27.544Z,70.92
2024-04-09T11:15:54.314Z,71.35
2024-04-09T11:18:24.020Z,69.50
2024-04-09T11:20:53.495Z,69.50
2024-04-09T11:23:22.261Z,68.52
2024-04-09T11:25:49.429Z,68.08
2024-04-09T11:28:16.030Z,66.79
2024-04-09T11:30:47.877Z,66.44
2024-04-09T11:33:18.450Z,64.87
2024-04-09T11:35:46.389Z,64.16
2024-04-09T11:38:13.942Z,64.46
2024-04-09T11:40:40.750Z,64.42
2024-04-09T11:43:07.388Z,64.50
2024-04-09T11:45:37.286Z,63.54
2024-04-09T11:48:04.509Z,64.35
2024-04-09T11:50:31.493Z,63.43
2024-04-09T11:52:58.186Z,64.12
2024-04-09T11:55:25.845Z,64.11
2024-04-09T11:57:52.826Z,62.67
2024-04-09T12:00:19.828Z,63.69
2024-04-09T12:02:46.901Z,63.90
2024-04-09T12:05:15.291Z,64.92
2024-04-09T12:07:42.422Z,65.10
2024-04-09T12:10:09.705Z,65.36
2024-04-09T12:12:36.855Z,63.73
2024-04-09T12:15:06.876Z,64.42
2024-04-09T12:17:33.784Z,64.77
2024-04-09T12:20:00.448Z,65.02
2024-04-09T12:22:29.577Z,67.44
2024-04-09T12:24:57.654Z,66.55
2024-04-09T12:27:24.558Z,67.79
2024-04-09T12:29:51.165Z,69.27
2024-04-09T12:32:18.085Z,73.08
2024-04-09T12:34:45.293Z,75.61
2024-04-09T12:37:12.079Z,77.19
2024-04-09T12:39:38.735Z,78.24
2024-04-09T12:42:05.638Z,77.76
2024-04-09T12:44:32.549Z,77.86
2024-04-09T12:46:59.484Z,76.25
2024-04-09T12:49:37.786Z,76.99
2024-04-09T12:52:10.560Z,75.75
2024-04-09T12:54:37.236Z,75.60
2024-04-09T12:57:04.005Z,72.86
2024-04-09T12:59:48.043Z,71.76
2024-04-09T13:02:23.350Z,71.00
2024-04-09T13:04:50.933Z,69.41
2024-04-09T13:07:18.353Z,70.24
2024-04-09T13:09:45.145Z,69.72
2024-04-09T13:12:12.750Z,70.03
2024-04-09T13:14:39.427Z,71.69
2024-04-09T13:17:08.223Z,70.73
2024-04-09T13:19:36.388Z,72.74
2024-04-09T13:22:03.543Z,74.48
2024-04-09T13:24:30.951Z,74.72
2024-04-09T13:26:57.968Z,75.93
2024-04-09T13:29:25.120Z,74.35
2024-04-09T13:31:52.479Z,72.79
2024-04-09T13:34:22.849Z,73.71
2024-04-09T13:36:50.615Z,67.88
2024-04-09T13:39:17.283Z,65.78
2024-04-09T13:41:43.860Z,64.00
2024-04-09T13:44:10.595Z,57.64
2024-04-09T13:46:37.282Z,59.11
2024-04-09T13:49:04.324Z,61.16
2024-04-09T13:51:31.164Z,60.06
2024-04-09T13:53:57.878Z,62.13
2024-04-09T13:56:24.505Z,60.12
2024-04-09T13:58:51.162Z,61.07
2024-04-09T14:01:17.738Z,60.68
2024-04-09T14:03:44.675Z,61.11
2024-04-09T14:06:11.678Z,60.81
2024-04-09T14:08:38.945Z,62.97
2024-04-09T14:11:05.639Z,64.55
2024-04-09T14:13:32.781Z,64.52
2024-04-09T14:15:59.972Z,62.84
2024-04-09T14:18:31.383Z,60.38
2024-04-09T14:20:59.734Z,62.72
2024-04-09T14:23:26.692Z,61.85
2024-04-09T14:25:53.523Z,61.72
2024-04-09T14:28:20.381Z,63.13
2024-04-09T14:30:46.996Z,63.96
2024-04-09T14:33:14.448Z,66.18
2024-04-09T14:35:44.394Z,65.03
2024-04-09T14:38:11.173Z,63.79
2024-04-09T14:40:37.855Z,63.22
2024-04-09T14:43:05.030Z,63.54
2024-04-09T14:45:31.588Z,63.39
2024-04-09T14:47:58.392Z,65.22
2024-04-09T14:50:25.374Z,68.52
2024-04-09T14:52:52.096Z,65.34
2024-04-09T14:55:18.692Z,71.44
2024-04-09T14:57:45.323Z,65.11
2024-04-09T15:00:12.742Z,65.51
2024-04-09T15:02:39.500Z,65.67
2024-04-09T15:05:06.585Z,67.20
2024-04-09T15:07:33.796Z,69.77
2024-04-09T15:10:00.459Z,65.11
2024-04-09T15:12:27.765Z,69.92
2024-04-09T15:14:54.386Z,62.01
2024-04-09T15:17:21.092Z,64.57
2024-04-09T15:19:47.739Z,61.41
2024-04-09T15:22:14.886Z,76.17
2024-04-09T15:24:41.605Z,67.06
2024-04-09T15:27:08.207Z,68.88
2024-04-09T15:29:34.870Z,69.81
2024-04-09T15:32:01.591Z,68.96
2024-04-09T15:34:29.432Z,70.44
2024-04-09T15:36:56.306Z,70.37
2024-04-09T15:39:25.945Z,76.15
2024-04-09T15:41:52.523Z,77.87
2024-04-09T15:44:19.193Z,75.25
2024-04-09T15:46:46.223Z,72.29
2024-04-09T15:49:15.663Z,79.62
2024-04-09T15:51:43.891Z,77.37
2024-04-09T15:54:10.502Z,72.38
2024-04-09T15:56:37.103Z,72.73
2024-04-09T15:59:04.530Z,74.97
2024-04-09T16:01:37.039Z,76.98
2024-04-09T16:04:03.903Z,78.85
2024-04-09T16:06:31.141Z,76.94
2024-04-09T16:08:57.729Z,73.03
2024-04-09T16:11:27.385Z,72.76
2024-04-09T16:13:54.282Z,74.64
2024-04-09T16:16:22.076Z,73.56
2024-04-09T16:18:48.958Z,74.05
2024-04-09T16:21:15.644Z,78.30
2024-04-09T16:23:42.311Z,73.04
2024-04-09T16:26:11.751Z,73.80
2024-04-09T16:28:38.663Z,71.27
2024-04-09T16:31:05.315Z,71.12
2024-04-09T16:33:32.871Z,75.81
2024-04-09T16:35:59.556Z,72.18
2024-04-09T16:38:28.196Z,75.80
2024-04-09T16:40:56.335Z,77.50
2024-04-09T16:43:22.898Z,69.68
2024-04-09T16:45:49.480Z,71.42
2024-04-09T16:48:16.586Z,71.48
2024-04-09T16:50:46.209Z,75.47
2024-04-09T16:53:13.172Z,69.95
2024-04-09T16:55:39.802Z,75.88
2024-04-09T16:58:06.450Z,75.80
2024-04-09T17:00:33.074Z,73.27
2024-04-09T17:03:00.008Z,70.78
2024-04-09T17:05:27.167Z,74.72
2024-04-09T17:07:54.286Z,70.18
2024-04-09T17:10:20.909Z,73.16
2024-04-09T17:12:47.505Z,70.79
2024-04-09T17:15:15.979Z,74.19
2024-04-09T17:17:42.750Z,75.50
2024-04-09T17:20:09.869Z,70.35
2024-04-09T17:22:36.563Z,73.78
2024-04-09T17:25:05.110Z,70.44
2024-04-09T17:27:33.723Z,71.43
2024-04-09T17:30:00.908Z,72.61
2024-04-09T17:32:32.170Z,75.04
2024-04-09T17:35:00.900Z,73.73
2024-04-09T17:37:27.992Z,73.74
2024-04-09T17:39:54.605Z,74.34
2024-04-09T17:42:21.226Z,71.40
2024-04-09T17:44:47.896Z,73.38
2024-04-09T17:47:14.631Z,73.85
2024-04-09T17:49:41.937Z,76.57
2024-04-09T17:52:08.654Z,75.69
2024-04-09T17:54:35.495Z,69.34
2024-04-09T17:57:02.345Z,72.21
2024-04-09T17:59:29.339Z,69.97
2024-04-09T18:01:56.079Z,74.18
2024-04-09T18:04:26.833Z,72.42
2024-04-09T18:06:53.574Z,72.96
2024-04-09T18:09:20.139Z,76.52
2024-04-09T18:11:47.663Z,76.16
2024-04-09T18:14:18.805Z,72.81
2024-04-09T18:16:46.109Z,71.44
2024-04-09T18:19:13.220Z,70.82
2024-04-09T18:21:39.886Z,75.24
2024-04-09T18:24:06.590Z,74.47
2024-04-09T18:26:33.272Z,71.84
2024-04-09T18:28:59.934Z,72.49
2024-04-09T18:31:26.590Z,78.22
2024-04-09T18:33:53.446Z,84.50
2024-04-09T18:36:20.199Z,80.62
2024-04-09T18:38:48.788Z,81.98
2024-04-09T18:41:15.582Z,79.48
2024-04-09T18:43:42.801Z,70.54
2024-04-09T18:46:09.617Z,78.47
2024-04-09T18:48:36.767Z,77.57
2024-04-09T18:51:08.152Z,78.96
2024-04-09T18:53:36.471Z,70.63
2024-04-09T18:56:04.202Z,71.79
2024-04-09T18:58:30.831Z,71.59
2024-04-09T19:00:57.508Z,69.99
2024-04-09T19:03:24.201Z,71.14
2024-04-09T19:05:50.995Z,73.15
2024-04-09T19:08:17.849Z,71.19
2024-04-09T19:10:44.851Z,71.46
2024-04-09T19:13:11.738Z,71.09
2024-04-09T19:15:38.320Z,74.77
2024-04-09T19:18:05.487Z,78.33
2024-04-09T19:20:33.605Z,70.81
2024-04-09T19:23:01.890Z,70.42
2024-04-09T19:25:28.640Z,72.88
2024-04-09T19:27:55.297Z,71.71
2024-04-09T19:30:21.910Z,71.75
2024-04-09T19:32:48.684Z,74.10
2024-04-09T19:35:15.739Z,72.66
2024-04-09T19:37:42.518Z,71.28
2024-04-09T19:40:10.267Z,72.29
2024-04-09T19:42:37.022Z,69.29
2024-04-09T19:45:04.714Z,72.10
2024-04-09T19:47:31.915Z,69.62
2024-04-09T19:50:00.072Z,69.37
2024-04-09T19:52:26.972Z,73.68
2024-04-09T19:54:53.703Z,68.84
2024-04-09T19:57:20.311Z,69.15
2024-04-09T19:59:46.899Z,70.78
2024-04-09T20:02:13.519Z,69.73
2024-04-09T20:04:40.279Z,68.98
2024-04-09T20:07:06.940Z,69.62
2024-04-09T20:09:33.802Z,70.23
2024-04-09T20:12:01.027Z,69.72
2024-04-09T20:14:28.372Z,70.78
2024-04-09T20:16:55.406Z,69.68
2024-04-09T20:19:22.141Z,69.34
2024-04-09T20:21:49.964Z,73.57
2024-04-09T20:24:16.600Z,71.48
2024-04-09T20:26:43.262Z,69.93
2024-04-09T20:29:10.939Z,70.29
2024-04-09T20:31:44.842Z,71.46
2024-04-09T20:34:12.172Z,71.25
2024-04-09T20:36:38.785Z,69.87
2024-04-09T20:39:05.382Z,75.67
2024-04-09T20:41:35.401Z,72.05
2024-04-09T20:44:07.497Z,70.11
2024-04-09T20:46:34.123Z,70.25
2024-04-09T20:49:02.956Z,71.12
2024-04-09T20:51:31.198Z,70.58
2024-04-09T20:53:57.741Z,71.58
2024-04-09T20:56:24.460Z,71.66
2024-04-09T20:58:51.481Z,71.03
2024-04-09T21:01:18.393Z,72.77
2024-04-09T21:03:45.278Z,71.61
2024-04-09T21:06:12.061Z,72.33
2024-04-09T21:08:41.503Z,70.91
2024-04-09T21:11:10.256Z,70.62
2024-04-09T21:13:36.956Z,72.25
2024-04-09T21:16:03.652Z,70.57
2024-04-09T21:18:30.435Z,71.24
2024-04-09T21:20:57.110Z,70.26
2024-04-09T21:23:23.909Z,73.61
2024-04-09T21:25:50.636Z,71.92
2024-04-09T21:28:17.364Z,70.41
2024-04-09T21:30:44.105Z,72.86
2024-04-09T21:33:11.759Z,71.48
2024-04-09T21:35:40.907Z,71.25
2024-04-09T21:38:08.022Z,70.68
2024-04-09T21:40:34.755Z,70.61
2024-04-09T21:43:02.101Z,70.43
2024-04-09T21:45:28.798Z,70.42
2024-04-09T21:47:55.538Z,69.64
2024-04-09T21:50:22.250Z,69.76
2024-04-09T21:52:48.891Z,70.29
2024-04-09T21:55:15.661Z,76.41
2024-04-09T21:57:42.231Z,73.31
2024-04-09T22:00:21.161Z,70.97
2024-04-09T22:02:48.704Z,69.64
2024-04-09T22:05:15.463Z,68.34
2024-04-09T22:07:43.250Z,65.77
2024-04-09T22:10:09.932Z,66.45
2024-04-09T22:12:36.572Z,65.30
2024-04-09T22:15:03.305Z,67.64
2024-04-09T22:17:30.573Z,65.31
2024-04-09T22:19:57.600Z,62.07
2024-04-09T22:22:24.333Z,60.41
2024-04-09T22:24:50.995Z,61.57
2024-04-09T22:27:17.589Z,68.03
2024-04-09T22:29:44.196Z,61.99
2024-04-09T22:32:13.813Z,63.45
2024-04-09T22:34:41.767Z,63.61
2024-04-09T22:37:08.421Z,63.00
2024-04-09T22:39:35.027Z,63.10
2024-04-09T22:42:01.584Z,63.87
2024-04-09T22:44:28.271Z,63.67
2024-04-09T22:46:55.247Z,63.03
2024-04-09T22:49:22.000Z,62.80
2024-04-09T22:51:48.695Z,63.39
2024-04-09T22:54:15.787Z,63.69
2024-04-09T22:56:42.332Z,65.03
2024-04-09T22:59:09.075Z,64.46
2024-04-09T23:01:36.096Z,65.86
2024-04-09T23:04:02.811Z,66.33
2024-04-09T23:06:29.462Z,66.88
2024-04-09T23:08:56.703Z,68.62
2024-04-09T23:11:23.491Z,66.64
2024-04-09T23:13:50.510Z,68.16
2024-04-09T23:16:17.555Z,67.28
2024-04-09T23:18:45.377Z,69.68
2024-04-09T23:21:12.023Z,67.18
2024-04-09T23:23:38.646Z,66.85
2024-04-09T23:26:05.428Z,68.25
2024-04-09T23:28:32.110Z,68.81
2024-04-09T23:30:58.669Z,68.78
2024-04-09T23:33:25.352Z,66.74
2024-04-09T23:35:52.288Z,67.44
2024-04-09T23:38:19.015Z,68.99
2024-04-09T23:40:45.940Z,67.68
2024-04-09T23:43:13.301Z,73.18
2024-04-09T23:45:39.903Z,75.73
2024-04-09T23:48:07.567Z,69.70
2024-04-09T23:50:34.746Z,67.56
2024-04-09T23:53:01.566Z,70.05
2024-04-09T23:55:28.296Z,68.93
2024-04-09T23:57:54.994Z,67.91
